Bookmark and Share
Track history (hours):
 

Legend Of The Seas

Operator: Royal Caribbean Cruises Ltd

Last reported at 2014-Apr-23 21:12 UTC. Time now 2014-Apr-24 23:06 UTC.
Position N 38°36' W 024°03'.

Type: Passenger vessel. MMSI: 311378000.

NotesDate/timePositionNaut miles runAvg speedWind from/ knotsBaromVisibWave heightAir tempDewpointWater temp
2014-Apr-23 21:12N 38°36' W 024°03'1218.0
2014-Apr-23 20:33N 38°27' W 024°13'1817.9
2014-Apr-23 19:33N 38°13' W 024°28'1717.5
2014-Apr-23 18:33N 37°60' W 024°42'1817.9
2014-Apr-23 17:33N 37°46' W 024°56'1716.7
2014-Apr-23 16:33N 37°40' W 025°16'1716.9
2014-Apr-23 15:33N 37°43' W 025°37'3 2.6
2014-Apr-23 14:32N 37°44' W 025°40'0 0.0
2014-Apr-23 13:32N 37°44' W 025°40'0 0.0
2014-Apr-23 12:32N 37°44' W 025°40'0 0.0
2014-Apr-23 11:32N 37°44' W 025°40'0 0.0
2014-Apr-23 10:32N 37°44' W 025°40'0 0.0
2014-Apr-23 09:32N 37°44' W 025°40'0 0.0
2014-Apr-23 08:32N 37°44' W 025°40'0 0.3
2014-Apr-23 07:33N 37°44' W 025°39'6 6.3
2014-Apr-23 06:34N 37°42' W 025°47'1616.4
2014-Apr-23 05:33N 37°42' W 026°08'1716.6
2014-Apr-23 04:33N 37°41' W 026°29'1716.6
2014-Apr-23 03:33N 37°40' W 026°49'1616.3
2014-Apr-23 02:34N 37°39' W 027°10'1716.7
2014-Apr-23 01:33N 37°38' W 027°31'1817.6
2014-Apr-23 00:33N 37°36' W 027°53'1817.5
2014-Apr-22 23:34N 37°35' W 028°15'1717.2
2014-Apr-22 22:33N 37°34' W 028°37'1717.3
2014-Apr-22 21:33N 37°33' W 028°59'1817.5
2014-Apr-22 20:33N 37°32' W 029°21'1717.5
2014-Apr-22 19:34N 37°31' W 029°43'2217.1
2014-Apr-22 18:17N 37°30' W 030°10'  
2014-Apr-17 00:32N 26°15' W 079°19'1919.2
2014-Apr-16 23:34N 26°11' W 079°39'1919.0
2014-Apr-16 22:33N 26°06' W 079°60'7 6.7
2014-Apr-16 21:31N 26°05' W 080°07'0 0.0
2014-Apr-16 20:31N 26°05' W 080°07'0 0.0
2014-Apr-16 19:31N 26°05' W 080°07'0 0.0
2014-Apr-16 18:22N 26°05' W 080°07'0 0.0
2014-Apr-16 17:22N 26°05' W 080°07'0 0.0
2014-Apr-16 16:25N 26°05' W 080°07'0 0.0
2014-Apr-16 15:25N 26°05' W 080°07'0 0.0
2014-Apr-16 14:28N 26°05' W 080°07'0 0.0
2014-Apr-16 13:28N 26°05' W 080°07'0 0.0
2014-Apr-16 12:28N 26°05' W 080°07'0 0.0
2014-Apr-16 11:31N 26°05' W 080°07'0 0.2
2014-Apr-16 10:33N 26°05' W 080°07'9 9.1
2014-Apr-16 09:34N 26°00' W 079°59'1717.1
2014-Apr-16 08:34N 25°49' W 079°45'1716.7
2014-Apr-16 07:34N 25°33' W 079°40'  

Dump ship's entire track history

sailing weather and tide predictions

Legend Of The Seas — C6SL5 — position and weather